createdAt,value
2022-12-22T00:00:58.245Z,0.40
2022-12-22T00:03:44.706Z,0.30
2022-12-22T00:06:31.301Z,0.20
2022-12-22T00:09:17.684Z,0.40
2022-12-22T00:12:03.912Z,0.40
2022-12-22T00:14:50.376Z,0.50
2022-12-22T00:17:42.644Z,0.30
2022-12-22T00:20:32.665Z,0.43
2022-12-22T00:23:18.973Z,0.33
2022-12-22T00:26:05.725Z,0.40
2022-12-22T00:28:52.421Z,0.50
2022-12-22T00:31:39.230Z,0.40
2022-12-22T00:34:32.599Z,0.43
2022-12-22T00:37:19.332Z,0.20
2022-12-22T00:40:05.692Z,0.40
2022-12-22T00:42:52.102Z,0.40
2022-12-22T00:45:38.351Z,0.40
2022-12-22T00:48:25.739Z,0.40
2022-12-22T00:51:13.614Z,0.30
2022-12-22T00:53:59.981Z,0.27
2022-12-22T00:56:46.558Z,0.33
2022-12-22T00:59:32.856Z,0.30
2022-12-22T01:02:19.246Z,0.40
2022-12-22T01:05:05.659Z,0.30
2022-12-22T01:07:53.442Z,0.30
2022-12-22T01:10:41.169Z,0.10
2022-12-22T01:13:29.667Z,0.20
2022-12-22T01:16:16.286Z,0.40
2022-12-22T01:19:02.666Z,0.10
2022-12-22T01:21:49.119Z,0.20
2022-12-22T01:24:37.600Z,0.10
2022-12-22T01:27:24.011Z,0.20
2022-12-22T01:30:10.295Z,0.30
2022-12-22T01:32:56.716Z,0.10
2022-12-22T01:35:44.828Z,0.20
2022-12-22T01:38:31.320Z,0.20
2022-12-22T01:41:19.404Z,0.17
2022-12-22T01:44:05.809Z,0.30
2022-12-22T01:46:53.179Z,0.20
2022-12-22T01:49:40.905Z,0.27
2022-12-22T01:52:28.800Z,0.30
2022-12-22T01:55:16.277Z,0.20
2022-12-22T01:58:03.915Z,0.20
2022-12-22T02:00:50.461Z,0.20
2022-12-22T02:03:37.407Z,0.30
2022-12-22T02:06:33.035Z,0.30
2022-12-22T02:09:26.701Z,0.20
2022-12-22T02:12:18.157Z,0.10
2022-12-22T02:15:09.816Z,0.33
2022-12-22T02:18:01.404Z,0.40
2022-12-22T02:20:55.107Z,0.23
2022-12-22T02:24:00.271Z,0.20
2022-12-22T02:26:49.993Z,0.10
2022-12-22T02:29:38.069Z,0.30
2022-12-22T02:32:24.442Z,0.27
2022-12-22T02:35:10.715Z,0.20
2022-12-22T02:38:00.730Z,0.30
2022-12-22T02:40:51.207Z,0.30
2022-12-22T02:43:44.966Z,0.30
2022-12-22T02:46:34.443Z,0.20
2022-12-22T02:49:23.929Z,0.33
2022-12-22T02:52:13.090Z,0.10
2022-12-22T02:54:59.446Z,0.27
2022-12-22T02:57:45.731Z,0.80
2022-12-22T03:00:34.044Z,0.30
2022-12-22T03:03:20.664Z,0.27
2022-12-22T03:06:07.159Z,0.23
2022-12-22T03:08:53.537Z,0.20
2022-12-22T03:11:39.978Z,0.43
2022-12-22T03:14:26.414Z,0.20
2022-12-22T03:17:14.093Z,0.20
2022-12-22T03:20:00.452Z,0.10
2022-12-22T03:22:46.976Z,0.33
2022-12-22T03:25:33.308Z,0.30
2022-12-22T03:28:03.926Z,0.27
2022-12-22T03:30:32.744Z,0.30
2022-12-22T03:33:02.636Z,0.33
2022-12-22T03:35:31.219Z,0.50
2022-12-22T03:38:03.248Z,0.30
2022-12-22T03:40:32.011Z,0.50
2022-12-22T03:43:18.372Z,0.43
2022-12-22T03:46:00.912Z,0.30
2022-12-22T03:48:30.922Z,0.30
2022-12-22T03:50:59.542Z,0.30
2022-12-22T03:53:28.115Z,0.47
2022-12-22T03:55:56.773Z,0.17
2022-12-22T03:58:25.388Z,0.20
2022-12-22T04:00:53.996Z,0.30
2022-12-22T04:03:22.675Z,0.20
2022-12-22T04:05:52.609Z,0.10
2022-12-22T04:08:21.153Z,0.27
2022-12-22T04:11:07.526Z,0.30
2022-12-22T04:13:36.098Z,0.20
2022-12-22T04:16:04.746Z,0.23
2022-12-22T04:18:33.319Z,0.10
2022-12-22T04:21:03.230Z,0.30
2022-12-22T04:23:31.787Z,0.40
2022-12-22T04:26:01.318Z,0.23
2022-12-22T04:28:29.884Z,0.20
2022-12-22T04:30:58.493Z,0.30
2022-12-22T04:33:27.065Z,0.20
2022-12-22T04:35:55.647Z,0.30
2022-12-22T04:38:25.582Z,0.23
2022-12-22T04:40:54.103Z,0.20
2022-12-22T04:43:22.705Z,0.30
2022-12-22T04:45:54.304Z,0.30
2022-12-22T04:48:23.116Z,0.50
2022-12-22T04:50:51.707Z,0.30
2022-12-22T04:53:21.236Z,0.53
2022-12-22T04:55:51.810Z,0.50
2022-12-22T04:58:20.345Z,0.60
2022-12-22T05:00:48.958Z,0.60
2022-12-22T05:03:17.691Z,0.50
2022-12-22T05:05:46.272Z,0.70
2022-12-22T05:08:14.825Z,0.57
2022-12-22T05:10:43.423Z,0.50
2022-12-22T05:13:13.354Z,0.70
2022-12-22T05:15:41.918Z,0.70
2022-12-22T05:18:12.525Z,0.50
2022-12-22T05:20:41.113Z,0.60
2022-12-22T05:23:09.700Z,0.70
2022-12-22T05:25:38.241Z,0.70
2022-12-22T05:28:06.989Z,0.80
2022-12-22T05:30:37.036Z,0.80
2022-12-22T05:33:05.629Z,0.70
2022-12-22T05:35:34.245Z,0.80
2022-12-22T05:38:02.775Z,0.80
2022-12-22T05:40:31.335Z,0.80
2022-12-22T05:43:00.003Z,1.00
2022-12-22T05:45:28.596Z,1.00
2022-12-22T05:47:58.493Z,0.93
2022-12-22T05:50:27.062Z,0.83
2022-12-22T05:52:56.183Z,0.70
2022-12-22T05:55:24.726Z,0.70
2022-12-22T05:57:53.259Z,0.80
2022-12-22T06:00:22.385Z,1.00
2022-12-22T06:02:51.117Z,0.90
2022-12-22T06:05:21.329Z,0.80
2022-12-22T06:07:50.034Z,0.73
2022-12-22T06:10:18.589Z,1.10
2022-12-22T06:12:47.132Z,0.97
2022-12-22T06:15:16.206Z,1.00
2022-12-22T06:17:45.540Z,0.90
2022-12-22T06:20:14.781Z,1.23
2022-12-22T06:22:44.697Z,1.23
2022-12-22T06:25:18.120Z,1.20
2022-12-22T06:27:47.722Z,1.17
2022-12-22T06:30:16.826Z,1.33
2022-12-22T06:32:45.419Z,1.30
2022-12-22T06:35:14.198Z,1.40
2022-12-22T06:37:42.797Z,1.37
2022-12-22T06:40:13.160Z,1.60
2022-12-22T06:43:06.035Z,1.73
2022-12-22T06:45:37.429Z,1.60
2022-12-22T06:48:06.213Z,1.53
2022-12-22T06:50:34.861Z,1.70
2022-12-22T06:53:03.541Z,1.90
2022-12-22T06:55:33.461Z,1.70
2022-12-22T06:58:02.193Z,1.70
2022-12-22T07:00:30.911Z,1.80
2022-12-22T07:02:59.627Z,2.03
2022-12-22T07:05:30.260Z,2.20
2022-12-22T07:08:04.157Z,2.23
2022-12-22T07:10:55.868Z,2.17
2022-12-22T07:13:24.540Z,2.30
2022-12-22T07:16:00.247Z,2.20
2022-12-22T07:18:30.373Z,2.27
2022-12-22T07:20:59.388Z,2.63
2022-12-22T07:23:28.038Z,2.63
2022-12-22T07:25:57.949Z,2.60
2022-12-22T07:28:26.595Z,2.40
2022-12-22T07:30:55.717Z,2.60
2022-12-22T07:33:24.373Z,2.47
2022-12-22T07:36:02.636Z,2.50
2022-12-22T07:38:31.468Z,2.47
2022-12-22T07:41:05.289Z,2.70
2022-12-22T07:43:33.242Z,2.53
2022-12-22T07:46:01.900Z,2.70
2022-12-22T07:48:48.330Z,2.57
2022-12-22T07:51:16.965Z,2.53
2022-12-22T07:53:45.514Z,3.23
2022-12-22T07:56:15.524Z,3.27
2022-12-22T07:58:44.153Z,5.07
2022-12-22T08:01:12.709Z,4.67
2022-12-22T08:03:41.362Z,4.90
2022-12-22T08:06:10.282Z,6.23
2022-12-22T08:08:38.875Z,6.40
2022-12-22T08:11:07.821Z,7.03
2022-12-22T08:13:37.924Z,7.07
2022-12-22T08:16:07.386Z,7.77
2022-12-22T08:18:36.369Z,7.87
2022-12-22T08:21:05.256Z,9.00
2022-12-22T08:23:34.361Z,9.40
2022-12-22T08:26:06.113Z,9.10
2022-12-22T08:28:35.973Z,9.80
2022-12-22T08:31:06.207Z,9.43
2022-12-22T08:33:34.840Z,9.97
2022-12-22T08:36:08.087Z,10.40
2022-12-22T08:38:37.888Z,9.40
2022-12-22T08:41:06.740Z,9.30
2022-12-22T08:43:35.403Z,9.33
2022-12-22T08:46:04.034Z,9.20
2022-12-22T08:48:33.972Z,9.70
2022-12-22T08:51:02.529Z,9.67
2022-12-22T08:54:03.289Z,9.93
2022-12-22T08:56:19.626Z,10.03
2022-12-22T08:58:48.232Z,10.03
2022-12-22T09:01:18.009Z,9.47
2022-12-22T09:03:51.344Z,9.50
2022-12-22T09:06:25.128Z,9.30
2022-12-22T09:08:56.444Z,10.00
2022-12-22T09:11:25.229Z,9.27
2022-12-22T09:13:54.745Z,9.83
2022-12-22T09:16:24.112Z,10.77
2022-12-22T09:18:54.261Z,9.80
2022-12-22T09:21:23.071Z,10.87
2022-12-22T09:23:51.926Z,12.20
2022-12-22T09:26:21.845Z,11.17
2022-12-22T09:28:51.071Z,11.93
2022-12-22T09:31:20.071Z,12.07
2022-12-22T09:33:49.100Z,13.77
2022-12-22T09:36:20.118Z,13.73
2022-12-22T09:38:48.784Z,16.20
2022-12-22T09:41:18.418Z,14.77
2022-12-22T09:43:47.112Z,16.77
2022-12-22T09:46:20.725Z,15.77
2022-12-22T09:48:49.424Z,16.27
2022-12-22T09:51:26.100Z,15.17
2022-12-22T09:53:57.403Z,14.57
2022-12-22T09:56:27.224Z,15.00
2022-12-22T09:58:55.940Z,14.67
2022-12-22T10:01:34.288Z,15.50
2022-12-22T10:04:04.589Z,15.00
2022-12-22T10:06:37.497Z,15.37
2022-12-22T10:09:45.774Z,15.27
2022-12-22T10:12:03.056Z,14.17
2022-12-22T10:14:34.944Z,13.73
2022-12-22T10:17:21.196Z,12.70
2022-12-22T10:19:50.992Z,10.77
2022-12-22T10:22:27.430Z,10.87
2022-12-22T10:24:56.407Z,10.47
2022-12-22T10:27:29.290Z,10.37
2022-12-22T10:30:12.991Z,11.30
2022-12-22T10:32:41.585Z,11.63
2022-12-22T10:35:10.336Z,11.10
2022-12-22T10:37:41.869Z,10.87
2022-12-22T10:40:15.723Z,11.63
2022-12-22T10:42:48.747Z,10.30
2022-12-22T10:45:21.299Z,10.80
2022-12-22T10:47:50.389Z,11.03
2022-12-22T10:50:19.359Z,11.00
2022-12-22T10:52:56.221Z,10.97
2022-12-22T10:55:26.474Z,10.83
2022-12-22T10:58:08.085Z,11.70
2022-12-22T11:00:36.685Z,11.50
2022-12-22T11:03:08.218Z,10.27
2022-12-22T11:05:36.871Z,11.50
2022-12-22T11:08:14.492Z,12.00
2022-12-22T11:10:45.371Z,10.97
2022-12-22T11:13:25.822Z,11.70
2022-12-22T11:15:59.083Z,11.57
2022-12-22T11:18:35.094Z,11.30
2022-12-22T11:21:05.187Z,10.60
2022-12-22T11:23:40.138Z,9.67
2022-12-22T11:26:12.941Z,9.50
2022-12-22T11:28:48.085Z,8.37
2022-12-22T11:31:23.160Z,9.60
2022-12-22T11:34:00.257Z,7.90
2022-12-22T11:36:33.083Z,8.07
2022-12-22T11:39:10.561Z,7.90
2022-12-22T11:41:54.279Z,7.90
2022-12-22T11:44:39.122Z,7.60
2022-12-22T11:47:12.337Z,7.30
2022-12-22T11:49:53.411Z,8.27
2022-12-22T11:52:29.753Z,7.00
2022-12-22T11:55:16.183Z,7.67
2022-12-22T11:57:54.225Z,7.50
2022-12-22T12:00:32.729Z,6.73
2022-12-22T12:03:31.831Z,7.60
2022-12-22T12:06:13.804Z,8.03
2022-12-22T12:08:48.528Z,7.50
2022-12-22T12:11:20.787Z,7.57
2022-12-22T12:13:52.151Z,7.27
2022-12-22T12:16:24.279Z,7.37
2022-12-22T12:19:04.848Z,8.10
2022-12-22T12:21:42.056Z,6.73
2022-12-22T12:24:19.277Z,7.23
2022-12-22T12:26:53.341Z,6.53
2022-12-22T12:29:25.912Z,6.53
2022-12-22T12:31:58.379Z,6.70
2022-12-22T12:34:27.339Z,6.60
2022-12-22T12:37:00.234Z,7.10
2022-12-22T12:39:32.683Z,6.33
2022-12-22T12:42:06.020Z,6.70
2022-12-22T12:44:36.773Z,6.60
2022-12-22T12:47:10.161Z,6.87
2022-12-22T12:49:57.440Z,7.13
2022-12-22T12:52:48.584Z,6.87
2022-12-22T12:55:31.323Z,6.70
2022-12-22T12:58:01.890Z,6.40
2022-12-22T13:00:49.704Z,6.03
2022-12-22T13:07:00.534Z,4.00
2022-12-22T13:12:38.608Z,2.70
2022-12-22T13:15:28.551Z,2.70
2022-12-22T13:17:58.596Z,2.13
2022-12-22T13:20:28.719Z,2.20
2022-12-22T13:22:58.361Z,1.80
2022-12-22T13:25:28.694Z,1.60
2022-12-22T13:27:59.082Z,1.80
2022-12-22T13:30:30.038Z,1.50
2022-12-22T13:33:02.225Z,1.47
2022-12-22T13:35:38.538Z,1.70
2022-12-22T13:38:08.865Z,1.60
2022-12-22T13:40:42.399Z,1.70
2022-12-22T13:43:13.047Z,1.50
2022-12-22T13:45:43.096Z,1.50
2022-12-22T13:48:15.609Z,1.57
2022-12-22T13:50:45.656Z,1.40
2022-12-22T13:53:41.504Z,1.73
2022-12-22T13:56:07.199Z,1.80
2022-12-22T13:58:37.700Z,1.33
2022-12-22T14:01:16.123Z,1.57
2022-12-22T14:04:00.140Z,1.67
2022-12-22T14:06:31.355Z,1.30
2022-12-22T14:09:12.930Z,1.20
2022-12-22T14:11:48.863Z,1.20
2022-12-22T14:14:21.337Z,1.03
2022-12-22T14:16:51.234Z,1.23
2022-12-22T14:19:22.332Z,0.87
2022-12-22T14:21:52.698Z,0.77
2022-12-22T14:24:24.132Z,1.10
2022-12-22T14:26:53.445Z,0.80
2022-12-22T14:29:24.147Z,0.90
2022-12-22T14:31:53.883Z,1.00
2022-12-22T14:34:31.406Z,0.90
2022-12-22T14:37:00.223Z,0.87
2022-12-22T14:39:30.817Z,0.70
2022-12-22T14:42:00.450Z,1.00
2022-12-22T14:44:31.098Z,0.90
2022-12-22T14:47:07.989Z,0.83
2022-12-22T14:49:45.372Z,0.90
2022-12-22T14:52:19.661Z,0.87
2022-12-22T14:54:48.917Z,0.80
2022-12-22T14:57:19.505Z,0.70
2022-12-22T14:59:59.291Z,0.80
2022-12-22T15:02:33.620Z,0.87
2022-12-22T15:05:15.809Z,0.70
2022-12-22T15:10:37.840Z,0.67
2022-12-22T15:13:08.144Z,0.80
2022-12-22T15:15:36.740Z,0.80
2022-12-22T15:18:05.451Z,1.10
2022-12-22T15:20:39.329Z,0.80
2022-12-22T15:23:11.920Z,0.97
2022-12-22T15:25:40.479Z,0.80
2022-12-22T15:28:09.019Z,0.80
2022-12-22T15:30:37.940Z,1.00
2022-12-22T15:33:08.257Z,0.87
2022-12-22T15:35:38.129Z,0.93
2022-12-22T15:38:11.705Z,0.90
2022-12-22T15:40:40.238Z,0.77
2022-12-22T15:43:17.596Z,0.90
2022-12-22T15:45:57.642Z,1.00
2022-12-22T15:48:28.653Z,1.23
2022-12-22T15:50:59.184Z,1.40
2022-12-22T15:53:27.813Z,1.37
2022-12-22T15:55:58.401Z,2.03
2022-12-22T15:58:28.934Z,1.57
2022-12-22T16:00:57.649Z,1.63
2022-12-22T16:03:26.412Z,1.60
2022-12-22T16:05:55.436Z,1.50
2022-12-22T16:08:29.248Z,1.70
2022-12-22T16:10:57.817Z,1.77
2022-12-22T16:13:28.853Z,1.83
2022-12-22T16:15:58.278Z,1.73
2022-12-22T16:18:26.942Z,1.70
2022-12-22T16:20:55.676Z,1.77
2022-12-22T16:23:27.372Z,1.40
2022-12-22T16:26:01.782Z,1.70
2022-12-22T16:28:32.874Z,1.63
2022-12-22T16:31:01.806Z,1.90
2022-12-22T16:33:30.436Z,2.10
2022-12-22T16:35:59.027Z,1.70
2022-12-22T16:38:28.919Z,1.50
2022-12-22T16:40:57.482Z,1.90
2022-12-22T16:46:18.403Z,2.17
2022-12-22T16:48:47.979Z,2.30
2022-12-22T16:51:18.556Z,2.37
2022-12-22T16:53:48.548Z,2.03
2022-12-22T16:56:19.109Z,2.00
2022-12-22T16:58:48.046Z,2.30
2022-12-22T17:01:21.832Z,2.27
2022-12-22T17:03:50.979Z,2.73
2022-12-22T17:06:19.690Z,2.40
2022-12-22T17:08:49.780Z,2.40
2022-12-22T17:11:20.341Z,2.57
2022-12-22T17:13:49.087Z,2.67
2022-12-22T17:16:21.857Z,3.00
2022-12-22T17:18:50.568Z,2.63
2022-12-22T17:21:20.315Z,3.60
2022-12-22T17:23:51.233Z,2.77
2022-12-22T17:26:20.867Z,3.70
2022-12-22T17:28:50.383Z,3.20
2022-12-22T17:31:19.883Z,2.97
2022-12-22T17:33:48.528Z,3.93
2022-12-22T17:36:19.008Z,4.20
2022-12-22T17:38:47.600Z,4.40
2022-12-22T17:41:18.513Z,4.40
2022-12-22T17:43:47.566Z,4.20
2022-12-22T17:46:17.156Z,3.90
2022-12-22T17:48:46.032Z,4.60
2022-12-22T17:51:18.159Z,4.90
2022-12-22T17:53:47.472Z,4.50
2022-12-22T17:56:18.485Z,4.37
2022-12-22T17:58:47.124Z,4.30
2022-12-22T18:01:25.957Z,4.17
2022-12-22T18:03:54.923Z,4.50
2022-12-22T18:06:24.614Z,4.33
2022-12-22T18:08:53.685Z,5.30
2022-12-22T18:11:24.049Z,4.97
2022-12-22T18:13:53.347Z,5.37
2022-12-22T18:16:23.038Z,6.20
2022-12-22T18:18:51.770Z,5.30
2022-12-22T18:21:21.805Z,5.13
2022-12-22T18:23:51.207Z,5.73
2022-12-22T18:26:21.741Z,5.00
2022-12-22T18:28:51.667Z,4.90
2022-12-22T18:31:20.863Z,4.87
2022-12-22T18:33:49.494Z,4.33
2022-12-22T18:36:19.274Z,5.70
2022-12-22T18:38:48.594Z,5.93
2022-12-22T18:41:20.417Z,4.27
2022-12-22T18:43:48.990Z,4.93
2022-12-22T18:46:19.084Z,5.20
2022-12-22T18:48:48.103Z,5.80
2022-12-22T18:51:20.585Z,4.60
2022-12-22T18:53:49.660Z,5.00
2022-12-22T18:56:18.367Z,5.07
2022-12-22T18:58:47.258Z,4.43
2022-12-22T19:01:22.233Z,4.50
2022-12-22T19:03:51.655Z,4.80
2022-12-22T19:06:21.441Z,4.67
2022-12-22T19:08:50.434Z,4.90
2022-12-22T19:11:19.980Z,4.40
2022-12-22T19:13:49.627Z,3.73
2022-12-22T19:16:19.919Z,4.30
2022-12-22T19:18:49.907Z,4.23
2022-12-22T19:21:19.357Z,3.77
2022-12-22T19:23:48.070Z,3.07
2022-12-22T19:26:20.031Z,3.33
2022-12-22T19:28:49.871Z,3.13
2022-12-22T19:31:23.755Z,2.77
2022-12-22T19:33:54.140Z,3.57
2022-12-22T19:36:25.556Z,3.03
2022-12-22T19:39:02.668Z,2.83
2022-12-22T19:41:36.903Z,2.60
2022-12-22T19:44:05.757Z,2.47
2022-12-22T19:46:35.361Z,3.13
2022-12-22T19:49:05.401Z,2.80
2022-12-22T19:51:34.002Z,2.50
2022-12-22T19:54:02.615Z,2.33
2022-12-22T19:56:31.214Z,2.40
2022-12-22T19:59:01.084Z,2.60
2022-12-22T20:01:29.801Z,2.10
2022-12-22T20:03:58.403Z,2.33
2022-12-22T20:06:28.349Z,2.70
2022-12-22T20:09:01.491Z,2.43
2022-12-22T20:11:30.164Z,2.60
2022-12-22T20:13:58.724Z,1.83
2022-12-22T20:16:27.415Z,2.43
2022-12-22T20:18:55.968Z,2.13
2022-12-22T20:21:26.241Z,1.90
2022-12-22T20:23:56.622Z,2.33
2022-12-22T20:26:26.349Z,1.90
2022-12-22T20:28:55.257Z,2.43
2022-12-22T20:31:25.268Z,2.20
2022-12-22T20:33:54.801Z,2.50
2022-12-22T20:36:26.193Z,2.30
2022-12-22T20:38:57.174Z,2.00
2022-12-22T20:41:26.414Z,2.27
2022-12-22T20:43:55.011Z,1.83
2022-12-22T20:46:25.504Z,2.07
2022-12-22T20:48:55.971Z,1.90
2022-12-22T20:51:25.548Z,2.10
2022-12-22T20:53:55.751Z,2.10
2022-12-22T20:56:25.932Z,1.90
2022-12-22T20:58:54.711Z,2.70
2022-12-22T21:01:23.914Z,1.93
2022-12-22T21:03:52.715Z,1.97
2022-12-22T21:06:26.517Z,1.87
2022-12-22T21:08:58.057Z,2.20
2022-12-22T21:11:26.952Z,2.07
2022-12-22T21:13:55.765Z,1.80
2022-12-22T21:16:26.090Z,2.20
2022-12-22T21:18:55.487Z,2.20
2022-12-22T21:21:24.328Z,1.93
2022-12-22T21:23:52.858Z,1.83
2022-12-22T21:26:24.405Z,1.73
2022-12-22T21:28:54.333Z,1.60
2022-12-22T21:31:23.019Z,1.57
2022-12-22T21:33:51.643Z,1.73
2022-12-22T21:36:22.637Z,2.00
2022-12-22T21:38:53.808Z,2.30
2022-12-22T21:41:44.628Z,2.10
2022-12-22T21:44:13.842Z,1.93
2022-12-22T21:46:43.109Z,1.97
2022-12-22T21:49:19.461Z,2.20
2022-12-22T21:51:48.062Z,2.40
2022-12-22T21:54:16.940Z,2.47
2022-12-22T21:56:47.099Z,2.30
2022-12-22T21:59:15.976Z,2.10
2022-12-22T22:01:45.335Z,2.43
2022-12-22T22:04:14.304Z,2.07
2022-12-22T22:06:42.952Z,2.47
2022-12-22T22:09:13.314Z,2.40
2022-12-22T22:11:56.040Z,2.30
2022-12-22T22:14:26.011Z,2.60
2022-12-22T22:16:54.618Z,2.03
2022-12-22T22:19:23.209Z,2.17
2022-12-22T22:21:51.819Z,2.20
2022-12-22T22:24:20.479Z,1.93
2022-12-22T22:26:51.522Z,2.10
2022-12-22T22:29:20.222Z,1.63
2022-12-22T22:31:50.248Z,2.23
2022-12-22T22:34:18.895Z,2.00
2022-12-22T22:36:47.445Z,2.00
2022-12-22T22:39:16.039Z,2.00
2022-12-22T22:41:44.550Z,1.70
2022-12-22T22:44:13.392Z,2.10
2022-12-22T22:46:42.036Z,1.63
2022-12-22T22:49:12.004Z,2.00
2022-12-22T22:51:40.597Z,2.47
2022-12-22T22:54:09.141Z,1.90
2022-12-22T22:56:38.736Z,1.80
2022-12-22T22:59:07.463Z,1.60
2022-12-22T23:01:36.013Z,1.83
2022-12-22T23:04:04.719Z,1.80
2022-12-22T23:06:34.915Z,1.60
2022-12-22T23:09:03.668Z,1.70
2022-12-22T23:11:32.319Z,1.60
2022-12-22T23:14:01.045Z,1.70
2022-12-22T23:16:33.844Z,1.50
2022-12-22T23:19:06.522Z,1.30
2022-12-22T23:21:36.500Z,1.50
2022-12-22T23:24:05.249Z,1.33
2022-12-22T23:26:34.179Z,1.50
2022-12-22T23:29:04.011Z,1.70
2022-12-22T23:31:33.341Z,1.57
2022-12-22T23:34:02.231Z,1.30
2022-12-22T23:36:31.037Z,1.47
2022-12-22T23:39:01.597Z,1.50
2022-12-22T23:41:30.264Z,1.40
2022-12-22T23:43:58.815Z,1.57
2022-12-22T23:46:27.446Z,1.57
2022-12-22T23:48:56.735Z,1.17
2022-12-22T23:51:26.629Z,1.40
2022-12-22T23:53:55.273Z,1.00
2022-12-22T23:56:25.394Z,1.10
2022-12-22T23:58:55.179Z,1.10
